sensor_id;sensor_type;location;lat;lon;timestamp;pressure;altitude;pressure_sealevel;temperature;humidity
47883;BME280;37739;50.350;7.578;2023-04-30T00:00:46;100288.13;;;11.07;85.69
47883;BME280;37739;50.350;7.578;2023-04-30T00:03:11;100289.00;;;11.08;85.82
47883;BME280;37739;50.350;7.578;2023-04-30T00:05:39;100284.75;;;11.08;85.79
47883;BME280;37739;50.350;7.578;2023-04-30T00:08:07;100279.50;;;11.05;85.91
47883;BME280;37739;50.350;7.578;2023-04-30T00:10:32;100287.06;;;11.02;86.59
47883;BME280;37739;50.350;7.578;2023-04-30T00:12:58;100286.28;;;11.05;86.46
47883;BME280;37739;50.350;7.578;2023-04-30T00:15:23;100286.19;;;11.02;86.77
47883;BME280;37739;50.350;7.578;2023-04-30T00:17:48;100291.25;;;11.00;86.91
47883;BME280;37739;50.350;7.578;2023-04-30T00:20:16;100282.69;;;10.99;87.34
47883;BME280;37739;50.350;7.578;2023-04-30T00:22:42;100281.50;;;10.93;88.08
47883;BME280;37739;50.350;7.578;2023-04-30T00:25:09;100282.88;;;10.85;88.35
47883;BME280;37739;50.350;7.578;2023-04-30T00:27:35;100279.53;;;10.86;88.19
47883;BME280;37739;50.350;7.578;2023-04-30T00:30:00;100280.66;;;10.92;87.98
47883;BME280;37739;50.350;7.578;2023-04-30T00:32:28;100282.53;;;10.96;87.47
47883;BME280;37739;50.350;7.578;2023-04-30T00:34:56;100291.09;;;10.97;87.53
47883;BME280;37739;50.350;7.578;2023-04-30T00:37:21;100283.47;;;10.98;87.28
47883;BME280;37739;50.350;7.578;2023-04-30T00:39:46;100287.75;;;10.98;87.24
47883;BME280;37739;50.350;7.578;2023-04-30T00:42:14;100291.09;;;10.97;87.64
47883;BME280;37739;50.350;7.578;2023-04-30T00:44:42;100293.66;;;10.97;87.53
47883;BME280;37739;50.350;7.578;2023-04-30T00:47:09;100287.66;;;10.96;87.62
47883;BME280;37739;50.350;7.578;2023-04-30T00:49:35;100288.16;;;10.88;87.73
47883;BME280;37739;50.350;7.578;2023-04-30T00:52:00;100284.97;;;10.74;88.42
47883;BME280;37739;50.350;7.578;2023-04-30T00:54:28;100290.84;;;10.71;88.39
47883;BME280;37739;50.350;7.578;2023-04-30T00:56:56;100289.22;;;10.73;88.18
47883;BME280;37739;50.350;7.578;2023-04-30T00:59:22;100287.88;;;10.81;87.87
47883;BME280;37739;50.350;7.578;2023-04-30T01:01:51;100289.03;;;10.88;87.38
47883;BME280;37739;50.350;7.578;2023-04-30T01:04:17;100296.53;;;10.84;87.53
47883;BME280;37739;50.350;7.578;2023-04-30T01:06:46;100291.44;;;10.85;87.37
47883;BME280;37739;50.350;7.578;2023-04-30T01:09:11;100290.72;;;10.88;87.48
47883;BME280;37739;50.350;7.578;2023-04-30T01:12:12;100288.97;;;10.87;87.39
47883;BME280;37739;50.350;7.578;2023-04-30T01:15:06;100291.59;;;10.88;87.53
47883;BME280;37739;50.350;7.578;2023-04-30T01:17:51;100283.06;;;10.89;87.33
47883;BME280;37739;50.350;7.578;2023-04-30T01:20:18;100288.97;;;10.87;87.78
47883;BME280;37739;50.350;7.578;2023-04-30T01:22:51;100279.38;;;10.83;87.64
47883;BME280;37739;50.350;7.578;2023-04-30T01:25:43;100286.31;;;10.85;87.68
47883;BME280;37739;50.350;7.578;2023-04-30T01:28:17;100282.13;;;10.87;87.61
47883;BME280;37739;50.350;7.578;2023-04-30T01:30:46;100280.47;;;10.88;87.30
47883;BME280;37739;50.350;7.578;2023-04-30T01:33:12;100283.91;;;10.88;87.25
47883;BME280;37739;50.350;7.578;2023-04-30T01:38:27;100283.56;;;10.80;87.89
47883;BME280;37739;50.350;7.578;2023-04-30T01:41:34;100287.69;;;10.77;87.96
47883;BME280;37739;50.350;7.578;2023-04-30T01:46:29;100281.59;;;10.75;88.04
47883;BME280;37739;50.350;7.578;2023-04-30T01:52:08;100287.19;;;10.66;88.81
47883;BME280;37739;50.350;7.578;2023-04-30T01:54:44;100287.50;;;10.72;88.35
47883;BME280;37739;50.350;7.578;2023-04-30T01:57:27;100290.06;;;10.72;87.95
47883;BME280;37739;50.350;7.578;2023-04-30T01:59:55;100290.09;;;10.74;87.98
47883;BME280;37739;50.350;7.578;2023-04-30T02:02:23;100293.63;;;10.76;87.65
47883;BME280;37739;50.350;7.578;2023-04-30T02:04:48;100292.75;;;10.75;87.81
47883;BME280;37739;50.350;7.578;2023-04-30T02:10:02;100287.50;;;10.72;88.01
47883;BME280;37739;50.350;7.578;2023-04-30T02:12:27;100292.63;;;10.72;87.92
47883;BME280;37739;50.350;7.578;2023-04-30T02:14:57;100296.81;;;10.70;87.96
47883;BME280;37739;50.350;7.578;2023-04-30T02:17:22;100301.19;;;10.73;87.93
47883;BME280;37739;50.350;7.578;2023-04-30T02:19:48;100300.25;;;10.71;88.23
47883;BME280;37739;50.350;7.578;2023-04-30T02:22:13;100295.13;;;10.71;88.37
47883;BME280;37739;50.350;7.578;2023-04-30T02:24:38;100303.34;;;10.64;88.64
47883;BME280;37739;50.350;7.578;2023-04-30T02:27:04;100293.84;;;10.61;89.02
47883;BME280;37739;50.350;7.578;2023-04-30T02:29:29;100306.72;;;10.63;89.17
47883;BME280;37739;50.350;7.578;2023-04-30T02:32:00;100300.78;;;10.64;89.25
47883;BME280;37739;50.350;7.578;2023-04-30T02:34:27;100303.50;;;10.67;88.90
47883;BME280;37739;50.350;7.578;2023-04-30T02:36:53;100298.22;;;10.64;88.99
47883;BME280;37739;50.350;7.578;2023-04-30T02:39:18;100295.72;;;10.65;88.96
47883;BME280;37739;50.350;7.578;2023-04-30T02:41:48;100299.03;;;10.63;89.04
47883;BME280;37739;50.350;7.578;2023-04-30T02:44:15;100297.88;;;10.56;89.42
47883;BME280;37739;50.350;7.578;2023-04-30T02:46:41;100301.31;;;10.56;89.18
47883;BME280;37739;50.350;7.578;2023-04-30T02:49:08;100296.91;;;10.54;89.26
47883;BME280;37739;50.350;7.578;2023-04-30T02:51:36;100303.81;;;10.55;88.97
47883;BME280;37739;50.350;7.578;2023-04-30T02:54:01;100301.09;;;10.52;88.92
47883;BME280;37739;50.350;7.578;2023-04-30T02:56:29;100301.03;;;10.50;88.85
47883;BME280;37739;50.350;7.578;2023-04-30T02:58:54;100299.13;;;10.46;89.08
47883;BME280;37739;50.350;7.578;2023-04-30T03:01:22;100305.09;;;10.45;88.82
47883;BME280;37739;50.350;7.578;2023-04-30T03:03:48;100295.56;;;10.43;88.63
47883;BME280;37739;50.350;7.578;2023-04-30T03:06:13;100299.63;;;10.37;88.76
47883;BME280;37739;50.350;7.578;2023-04-30T03:08:38;100302.81;;;10.33;88.68
47883;BME280;37739;50.350;7.578;2023-04-30T03:11:04;100301.00;;;10.31;88.81
47883;BME280;37739;50.350;7.578;2023-04-30T03:13:29;100304.06;;;10.23;88.69
47883;BME280;37739;50.350;7.578;2023-04-30T03:15:58;100305.66;;;10.21;89.11
47883;BME280;37739;50.350;7.578;2023-04-30T03:18:24;100297.84;;;10.18;88.88
47883;BME280;37739;50.350;7.578;2023-04-30T03:20:49;100299.47;;;10.16;88.57
47883;BME280;37739;50.350;7.578;2023-04-30T03:23:15;100295.00;;;10.12;88.56
47883;BME280;37739;50.350;7.578;2023-04-30T03:25:40;100304.28;;;10.10;88.65
47883;BME280;37739;50.350;7.578;2023-04-30T03:28:06;100300.66;;;10.05;88.42
47883;BME280;37739;50.350;7.578;2023-04-30T03:30:31;100296.19;;;10.01;89.02
47883;BME280;37739;50.350;7.578;2023-04-30T03:32:59;100295.25;;;9.99;88.83
47883;BME280;37739;50.350;7.578;2023-04-30T03:35:24;100298.53;;;9.96;89.35
47883;BME280;37739;50.350;7.578;2023-04-30T03:37:50;100291.66;;;9.95;89.23
47883;BME280;37739;50.350;7.578;2023-04-30T03:40:15;100292.53;;;9.96;89.12
47883;BME280;37739;50.350;7.578;2023-04-30T03:42:43;100295.16;;;9.97;88.94
47883;BME280;37739;50.350;7.578;2023-04-30T03:45:08;100285.56;;;9.93;88.78
47883;BME280;37739;50.350;7.578;2023-04-30T03:47:35;100281.13;;;9.89;88.64
47883;BME280;37739;50.350;7.578;2023-04-30T03:50:02;100282.41;;;9.81;89.24
47883;BME280;37739;50.350;7.578;2023-04-30T03:52:28;100287.47;;;9.79;88.84
47883;BME280;37739;50.350;7.578;2023-04-30T03:54:58;100289.22;;;9.80;89.47
47883;BME280;37739;50.350;7.578;2023-04-30T03:57:23;100289.97;;;9.78;89.76
47883;BME280;37739;50.350;7.578;2023-04-30T03:59:49;100287.91;;;9.71;90.10
47883;BME280;37739;50.350;7.578;2023-04-30T04:02:15;100285.56;;;9.57;91.97
47883;BME280;37739;50.350;7.578;2023-04-30T04:04:41;100279.28;;;9.69;91.68
47883;BME280;37739;50.350;7.578;2023-04-30T04:07:06;100278.63;;;9.73;90.84
47883;BME280;37739;50.350;7.578;2023-04-30T04:09:36;100276.06;;;9.73;90.24
47883;BME280;37739;50.350;7.578;2023-04-30T04:12:04;100281.91;;;9.70;89.99
47883;BME280;37739;50.350;7.578;2023-04-30T04:14:29;100280.81;;;9.65;89.98
47883;BME280;37739;50.350;7.578;2023-04-30T04:17:00;100283.22;;;9.62;90.56
47883;BME280;37739;50.350;7.578;2023-04-30T04:19:26;100288.41;;;9.63;90.30
47883;BME280;37739;50.350;7.578;2023-04-30T04:21:53;100292.59;;;9.61;90.19
47883;BME280;37739;50.350;7.578;2023-04-30T04:24:23;100287.34;;;9.58;89.87
47883;BME280;37739;50.350;7.578;2023-04-30T04:26:48;100296.91;;;9.62;90.25
47883;BME280;37739;50.350;7.578;2023-04-30T04:29:14;100295.16;;;9.61;89.65
47883;BME280;37739;50.350;7.578;2023-04-30T04:31:41;100292.50;;;9.60;89.63
47883;BME280;37739;50.350;7.578;2023-04-30T04:34:07;100297.72;;;9.61;89.69
47883;BME280;37739;50.350;7.578;2023-04-30T04:36:32;100294.94;;;9.57;89.45
47883;BME280;37739;50.350;7.578;2023-04-30T04:39:00;100295.66;;;9.54;89.92
47883;BME280;37739;50.350;7.578;2023-04-30T04:41:29;100298.53;;;9.60;90.45
47883;BME280;37739;50.350;7.578;2023-04-30T04:44:03;100303.41;;;9.56;90.09
47883;BME280;37739;50.350;7.578;2023-04-30T04:46:35;100298.88;;;9.50;90.67
47883;BME280;37739;50.350;7.578;2023-04-30T04:49:04;100306.53;;;9.50;89.73
47883;BME280;37739;50.350;7.578;2023-04-30T04:51:32;100306.47;;;9.49;90.61
47883;BME280;37739;50.350;7.578;2023-04-30T04:54:00;100313.34;;;9.50;89.94
47883;BME280;37739;50.350;7.578;2023-04-30T04:56:25;100307.44;;;9.51;89.48
47883;BME280;37739;50.350;7.578;2023-04-30T04:58:51;100313.44;;;9.51;89.78
47883;BME280;37739;50.350;7.578;2023-04-30T05:01:17;100318.78;;;9.56;90.20
47883;BME280;37739;50.350;7.578;2023-04-30T05:03:44;100317.25;;;9.59;89.80
47883;BME280;37739;50.350;7.578;2023-04-30T05:06:12;100313.66;;;9.56;90.10
47883;BME280;37739;50.350;7.578;2023-04-30T05:08:40;100320.97;;;9.48;91.66
47883;BME280;37739;50.350;7.578;2023-04-30T05:11:06;100318.06;;;9.58;91.35
47883;BME280;37739;50.350;7.578;2023-04-30T05:13:33;100315.94;;;9.68;91.14
47883;BME280;37739;50.350;7.578;2023-04-30T05:15:59;100317.91;;;9.73;90.71
47883;BME280;37739;50.350;7.578;2023-04-30T05:18:26;100319.69;;;9.74;90.81
47883;BME280;37739;50.350;7.578;2023-04-30T05:20:54;100324.66;;;9.71;91.08
47883;BME280;37739;50.350;7.578;2023-04-30T05:23:19;100325.84;;;9.78;91.18
47883;BME280;37739;50.350;7.578;2023-04-30T05:25:50;100326.78;;;9.80;90.96
47883;BME280;37739;50.350;7.578;2023-04-30T05:28:19;100323.50;;;9.82;91.09
47883;BME280;37739;50.350;7.578;2023-04-30T05:30:44;100324.53;;;9.86;91.91
47883;BME280;37739;50.350;7.578;2023-04-30T05:33:11;100334.19;;;9.74;92.91
47883;BME280;37739;50.350;7.578;2023-04-30T05:35:39;100327.38;;;9.74;94.11
47883;BME280;37739;50.350;7.578;2023-04-30T05:38:05;100330.31;;;9.82;93.24
47883;BME280;37739;50.350;7.578;2023-04-30T05:40:33;100325.47;;;9.88;92.48
47883;BME280;37739;50.350;7.578;2023-04-30T05:43:02;100327.44;;;9.94;92.17
47883;BME280;37739;50.350;7.578;2023-04-30T05:45:28;100332.59;;;9.94;91.85
47883;BME280;37739;50.350;7.578;2023-04-30T05:47:56;100329.44;;;9.81;92.26
47883;BME280;37739;50.350;7.578;2023-04-30T05:50:25;100336.09;;;9.78;92.40
47883;BME280;37739;50.350;7.578;2023-04-30T05:52:50;100338.19;;;9.69;93.25
47883;BME280;37739;50.350;7.578;2023-04-30T05:55:16;100330.31;;;9.82;92.77
47883;BME280;37739;50.350;7.578;2023-04-30T05:57:41;100337.63;;;9.92;92.01
47883;BME280;37739;50.350;7.578;2023-04-30T06:00:07;100337.91;;;9.98;91.78
47883;BME280;37739;50.350;7.578;2023-04-30T06:02:32;100345.03;;;10.04;90.84
47883;BME280;37739;50.350;7.578;2023-04-30T06:05:00;100338.50;;;9.93;89.03
47883;BME280;37739;50.350;7.578;2023-04-30T06:07:29;100341.97;;;9.93;88.98
47883;BME280;37739;50.350;7.578;2023-04-30T06:09:57;100331.56;;;9.90;88.26
47883;BME280;37739;50.350;7.578;2023-04-30T06:12:25;100333.31;;;9.91;87.46
47883;BME280;37739;50.350;7.578;2023-04-30T06:14:52;100333.09;;;10.05;88.10
47883;BME280;37739;50.350;7.578;2023-04-30T06:17:18;100332.50;;;10.10;87.08
47883;BME280;37739;50.350;7.578;2023-04-30T06:19:43;100328.91;;;10.25;86.97
47883;BME280;37739;50.350;7.578;2023-04-30T06:22:08;100324.44;;;10.38;86.61
47883;BME280;37739;50.350;7.578;2023-04-30T06:24:34;100329.19;;;10.49;85.47
47883;BME280;37739;50.350;7.578;2023-04-30T06:27:01;100332.97;;;10.37;81.71
47883;BME280;37739;50.350;7.578;2023-04-30T06:29:32;100331.63;;;10.46;83.01
47883;BME280;37739;50.350;7.578;2023-04-30T06:32:00;100331.16;;;10.54;83.14
47883;BME280;37739;50.350;7.578;2023-04-30T06:34:25;100331.66;;;10.65;82.30
47883;BME280;37739;50.350;7.578;2023-04-30T06:36:50;100330.84;;;10.86;82.44
47883;BME280;37739;50.350;7.578;2023-04-30T06:39:16;100329.69;;;10.98;81.42
47883;BME280;37739;50.350;7.578;2023-04-30T06:41:41;100325.91;;;11.10;81.55
47883;BME280;37739;50.350;7.578;2023-04-30T06:44:07;100326.13;;;11.14;80.82
47883;BME280;37739;50.350;7.578;2023-04-30T06:46:33;100326.03;;;11.13;80.66
47883;BME280;37739;50.350;7.578;2023-04-30T06:48:58;100321.91;;;11.16;79.00
47883;BME280;37739;50.350;7.578;2023-04-30T06:51:24;100325.47;;;11.20;79.07
47883;BME280;37739;50.350;7.578;2023-04-30T06:53:49;100326.94;;;11.34;79.02
47883;BME280;37739;50.350;7.578;2023-04-30T06:56:17;100324.16;;;11.49;79.03
47883;BME280;37739;50.350;7.578;2023-04-30T06:58:46;100329.53;;;11.55;77.98
47883;BME280;37739;50.350;7.578;2023-04-30T07:01:14;100331.50;;;11.61;78.25
47883;BME280;37739;50.350;7.578;2023-04-30T07:03:39;100325.59;;;11.64;75.61
47883;BME280;37739;50.350;7.578;2023-04-30T07:06:07;100332.03;;;11.75;75.24
47883;BME280;37739;50.350;7.578;2023-04-30T07:08:32;100331.50;;;11.82;75.30
47883;BME280;37739;50.350;7.578;2023-04-30T07:11:00;100323.50;;;11.95;74.66
47883;BME280;37739;50.350;7.578;2023-04-30T07:13:27;100326.09;;;11.97;74.86
47883;BME280;37739;50.350;7.578;2023-04-30T07:15:58;100327.34;;;12.07;73.56
47883;BME280;37739;50.350;7.578;2023-04-30T07:18:25;100326.06;;;12.18;73.51
47883;BME280;37739;50.350;7.578;2023-04-30T07:20:53;100322.91;;;12.25;72.88
47883;BME280;37739;50.350;7.578;2023-04-30T07:23:21;100320.69;;;12.34;71.12
47883;BME280;37739;50.350;7.578;2023-04-30T07:25:47;100322.69;;;12.42;69.47
47883;BME280;37739;50.350;7.578;2023-04-30T07:28:15;100327.34;;;12.52;70.76
47883;BME280;37739;50.350;7.578;2023-04-30T07:30:40;100321.25;;;12.72;70.97
47883;BME280;37739;50.350;7.578;2023-04-30T07:33:08;100311.59;;;12.91;70.82
47883;BME280;37739;50.350;7.578;2023-04-30T07:35:35;100310.13;;;12.98;70.04
47883;BME280;37739;50.350;7.578;2023-04-30T07:38:03;100306.63;;;12.95;67.28
47883;BME280;37739;50.350;7.578;2023-04-30T07:40:29;100311.13;;;13.01;66.54
47883;BME280;37739;50.350;7.578;2023-04-30T07:42:59;100309.56;;;13.06;65.94
47883;BME280;37739;50.350;7.578;2023-04-30T07:45:25;100308.44;;;13.24;65.87
47883;BME280;37739;50.350;7.578;2023-04-30T07:47:50;100304.50;;;13.32;64.77
47883;BME280;37739;50.350;7.578;2023-04-30T07:50:18;100299.44;;;13.35;61.61
47883;BME280;37739;50.350;7.578;2023-04-30T07:52:43;100303.84;;;13.39;60.86
47883;BME280;37739;50.350;7.578;2023-04-30T07:55:11;100309.56;;;13.56;61.44
47883;BME280;37739;50.350;7.578;2023-04-30T07:57:37;100301.53;;;13.72;61.35
47883;BME280;37739;50.350;7.578;2023-04-30T08:00:02;100310.28;;;13.78;60.36
47883;BME280;37739;50.350;7.578;2023-04-30T08:02:28;100314.94;;;13.89;61.17
47883;BME280;37739;50.350;7.578;2023-04-30T08:04:53;100311.28;;;14.10;61.50
47883;BME280;37739;50.350;7.578;2023-04-30T08:07:21;100314.09;;;14.18;59.64
47883;BME280;37739;50.350;7.578;2023-04-30T08:09:46;100308.75;;;14.11;59.09
47883;BME280;37739;50.350;7.578;2023-04-30T08:12:15;100316.50;;;14.11;57.68
47883;BME280;37739;50.350;7.578;2023-04-30T08:14:43;100313.66;;;14.31;57.95
47883;BME280;37739;50.350;7.578;2023-04-30T08:17:08;100319.38;;;14.51;58.07
47883;BME280;37739;50.350;7.578;2023-04-30T08:19:34;100312.75;;;14.58;57.65
47883;BME280;37739;50.350;7.578;2023-04-30T08:22:04;100316.16;;;14.57;54.90
47883;BME280;37739;50.350;7.578;2023-04-30T08:24:32;100307.28;;;14.77;56.44
47883;BME280;37739;50.350;7.578;2023-04-30T08:26:57;100301.53;;;14.87;56.10
47883;BME280;37739;50.350;7.578;2023-04-30T08:29:24;100300.38;;;14.78;54.27
47883;BME280;37739;50.350;7.578;2023-04-30T08:31:52;100303.88;;;14.78;53.35
47883;BME280;37739;50.350;7.578;2023-04-30T08:34:17;100299.34;;;15.01;52.99
47883;BME280;37739;50.350;7.578;2023-04-30T08:36:43;100303.78;;;15.07;53.47
47883;BME280;37739;50.350;7.578;2023-04-30T08:39:13;100304.41;;;15.30;54.29
47883;BME280;37739;50.350;7.578;2023-04-30T08:41:39;100299.03;;;15.24;51.81
47883;BME280;37739;50.350;7.578;2023-04-30T08:44:08;100295.78;;;15.31;51.77
47883;BME280;37739;50.350;7.578;2023-04-30T08:46:36;100304.50;;;15.35;49.24
47883;BME280;37739;50.350;7.578;2023-04-30T08:49:03;100303.25;;;15.54;51.39
47883;BME280;37739;50.350;7.578;2023-04-30T08:51:36;100299.44;;;15.38;48.76
47883;BME280;37739;50.350;7.578;2023-04-30T08:54:09;100305.84;;;15.54;49.44
47883;BME280;37739;50.350;7.578;2023-04-30T08:56:36;100311.16;;;15.60;49.02
47883;BME280;37739;50.350;7.578;2023-04-30T08:59:04;100308.63;;;15.61;47.68
47883;BME280;37739;50.350;7.578;2023-04-30T09:01:29;100307.44;;;15.83;49.21
47883;BME280;37739;50.350;7.578;2023-04-30T09:03:55;100310.25;;;15.93;47.95
47883;BME280;37739;50.350;7.578;2023-04-30T09:06:20;100311.44;;;16.05;47.98
47883;BME280;37739;50.350;7.578;2023-04-30T09:08:48;100301.69;;;16.33;48.86
47883;BME280;37739;50.350;7.578;2023-04-30T09:11:25;100299.31;;;16.44;46.07
47883;BME280;37739;50.350;7.578;2023-04-30T09:13:53;100300.06;;;16.38;46.18
47883;BME280;37739;50.350;7.578;2023-04-30T09:16:20;100291.97;;;16.64;47.67
47883;BME280;37739;50.350;7.578;2023-04-30T09:18:46;100291.00;;;16.60;45.49
47883;BME280;37739;50.350;7.578;2023-04-30T09:21:15;100292.09;;;16.72;46.72
47883;BME280;37739;50.350;7.578;2023-04-30T09:23:54;100294.09;;;16.83;44.00
47883;BME280;37739;50.350;7.578;2023-04-30T09:26:29;100295.28;;;17.01;44.62
47883;BME280;37739;50.350;7.578;2023-04-30T09:28:58;100293.56;;;17.00;45.20
47883;BME280;37739;50.350;7.578;2023-04-30T09:31:29;100286.16;;;17.21;43.10
47883;BME280;37739;50.350;7.578;2023-04-30T09:33:55;100285.38;;;17.25;44.65
47883;BME280;37739;50.350;7.578;2023-04-30T09:36:20;100289.75;;;17.30;43.42
47883;BME280;37739;50.350;7.578;2023-04-30T09:38:45;100284.88;;;17.46;43.43
47883;BME280;37739;50.350;7.578;2023-04-30T09:41:27;100284.16;;;17.55;42.99
47883;BME280;37739;50.350;7.578;2023-04-30T09:43:57;100274.56;;;17.50;41.40
47883;BME280;37739;50.350;7.578;2023-04-30T09:46:32;100276.38;;;17.55;41.18
47883;BME280;37739;50.350;7.578;2023-04-30T09:49:05;100273.53;;;17.41;41.01
47883;BME280;37739;50.350;7.578;2023-04-30T09:51:31;100274.78;;;17.66;41.94
47883;BME280;37739;50.350;7.578;2023-04-30T09:54:01;100278.50;;;17.81;40.97
47883;BME280;37739;50.350;7.578;2023-04-30T09:56:30;100276.72;;;17.77;41.56
47883;BME280;37739;50.350;7.578;2023-04-30T09:59:03;100273.41;;;17.87;41.03
47883;BME280;37739;50.350;7.578;2023-04-30T10:01:29;100272.00;;;18.08;40.42
47883;BME280;37739;50.350;7.578;2023-04-30T10:03:55;100269.44;;;18.11;41.22
47883;BME280;37739;50.350;7.578;2023-04-30T10:06:23;100262.41;;;18.05;40.01
47883;BME280;37739;50.350;7.578;2023-04-30T10:08:57;100249.75;;;18.27;40.01
47883;BME280;37739;50.350;7.578;2023-04-30T10:11:27;100256.88;;;18.43;39.41
47883;BME280;37739;50.350;7.578;2023-04-30T10:14:03;100257.28;;;18.78;40.83
47883;BME280;37739;50.350;7.578;2023-04-30T10:19:13;100250.44;;;18.83;38.07
47883;BME280;37739;50.350;7.578;2023-04-30T10:21:41;100251.19;;;18.76;37.37
47883;BME280;37739;50.350;7.578;2023-04-30T10:24:11;100238.38;;;18.90;38.09
47883;BME280;37739;50.350;7.578;2023-04-30T10:26:37;100239.34;;;18.25;37.15
47883;BME280;37739;50.350;7.578;2023-04-30T10:29:04;100243.66;;;18.26;37.38
47883;BME280;37739;50.350;7.578;2023-04-30T10:31:30;100235.34;;;18.52;37.62
47883;BME280;37739;50.350;7.578;2023-04-30T10:34:03;100235.78;;;18.93;37.73
47883;BME280;37739;50.350;7.578;2023-04-30T10:36:38;100237.91;;;19.36;38.24
47883;BME280;37739;50.350;7.578;2023-04-30T10:39:05;100225.09;;;19.62;37.98
47883;BME280;37739;50.350;7.578;2023-04-30T10:41:31;100227.53;;;19.39;37.85
47883;BME280;37739;50.350;7.578;2023-04-30T10:43:57;100220.88;;;19.78;37.82
47883;BME280;37739;50.350;7.578;2023-04-30T10:46:25;100226.13;;;19.84;37.53
47883;BME280;37739;50.350;7.578;2023-04-30T10:48:52;100221.59;;;19.55;36.43
47883;BME280;37739;50.350;7.578;2023-04-30T10:51:21;100221.63;;;19.61;34.98
47883;BME280;37739;50.350;7.578;2023-04-30T10:53:51;100215.75;;;19.89;35.88
47883;BME280;37739;50.350;7.578;2023-04-30T10:56:32;100214.09;;;20.00;35.51
47883;BME280;37739;50.350;7.578;2023-04-30T10:59:01;100213.78;;;19.57;33.97
47883;BME280;37739;50.350;7.578;2023-04-30T11:01:27;100213.75;;;19.48;36.14
47883;BME280;37739;50.350;7.578;2023-04-30T11:04:04;100209.84;;;18.96;34.85
47883;BME280;37739;50.350;7.578;2023-04-30T11:09:45;100203.25;;;19.41;36.17
47883;BME280;37739;50.350;7.578;2023-04-30T11:12:19;100192.31;;;19.89;36.21
47883;BME280;37739;50.350;7.578;2023-04-30T11:14:46;100190.38;;;19.55;37.21
47883;BME280;37739;50.350;7.578;2023-04-30T11:17:20;100180.94;;;19.74;35.45
47883;BME280;37739;50.350;7.578;2023-04-30T11:19:53;100182.88;;;20.09;35.46
47883;BME280;37739;50.350;7.578;2023-04-30T11:22:22;100188.06;;;20.05;34.45
47883;BME280;37739;50.350;7.578;2023-04-30T11:29:50;100184.63;;;20.15;35.02
47883;BME280;37739;50.350;7.578;2023-04-30T11:32:21;100182.75;;;19.85;35.44
47883;BME280;37739;50.350;7.578;2023-04-30T11:34:47;100171.47;;;19.84;34.23
47883;BME280;37739;50.350;7.578;2023-04-30T11:37:21;100178.88;;;19.27;34.79
47883;BME280;37739;50.350;7.578;2023-04-30T11:39:48;100178.28;;;19.64;35.24
47883;BME280;37739;50.350;7.578;2023-04-30T11:42:17;100169.00;;;20.16;35.81
47883;BME280;37739;50.350;7.578;2023-04-30T11:44:44;100169.97;;;20.51;35.19
47883;BME280;37739;50.350;7.578;2023-04-30T11:47:10;100163.13;;;21.02;34.10
47883;BME280;37739;50.350;7.578;2023-04-30T11:49:37;100160.47;;;21.62;34.55
47883;BME280;37739;50.350;7.578;2023-04-30T11:52:03;100165.72;;;21.42;34.41
47883;BME280;37739;50.350;7.578;2023-04-30T11:54:31;100163.09;;;20.70;32.71
47883;BME280;37739;50.350;7.578;2023-04-30T11:56:59;100160.44;;;20.57;33.46
47883;BME280;37739;50.350;7.578;2023-04-30T11:59:29;100153.53;;;20.70;34.53
47883;BME280;37739;50.350;7.578;2023-04-30T12:01:55;100158.78;;;20.89;34.79
47883;BME280;37739;50.350;7.578;2023-04-30T12:04:23;100156.19;;;21.06;33.54
47883;BME280;37739;50.350;7.578;2023-04-30T12:06:49;100156.16;;;21.36;33.81
47883;BME280;37739;50.350;7.578;2023-04-30T12:09:17;100149.97;;;21.74;33.79
47883;BME280;37739;50.350;7.578;2023-04-30T12:11:42;100150.88;;;21.70;32.90
47883;BME280;37739;50.350;7.578;2023-04-30T12:14:09;100138.47;;;22.20;32.33
47883;BME280;37739;50.350;7.578;2023-04-30T12:16:43;100147.22;;;22.16;32.04
47883;BME280;37739;50.350;7.578;2023-04-30T12:19:14;100131.81;;;21.48;31.63
47883;BME280;37739;50.350;7.578;2023-04-30T12:21:45;100140.44;;;21.67;33.56
47883;BME280;37739;50.350;7.578;2023-04-30T12:24:17;100147.78;;;22.70;32.35
47883;BME280;37739;50.350;7.578;2023-04-30T12:26:42;100140.53;;;23.09;30.89
47883;BME280;37739;50.350;7.578;2023-04-30T12:29:09;100133.25;;;22.25;31.38
47883;BME280;37739;50.350;7.578;2023-04-30T12:31:36;100134.41;;;21.16;32.20
47883;BME280;37739;50.350;7.578;2023-04-30T12:34:03;100134.44;;;20.79;34.25
47883;BME280;37739;50.350;7.578;2023-04-30T12:36:32;100139.63;;;21.56;34.68
47883;BME280;37739;50.350;7.578;2023-04-30T12:39:14;100134.28;;;21.88;32.78
47883;BME280;37739;50.350;7.578;2023-04-30T12:41:47;100123.06;;;21.57;33.36
47883;BME280;37739;50.350;7.578;2023-04-30T12:46:45;100122.16;;;21.73;32.95
47883;BME280;37739;50.350;7.578;2023-04-30T12:49:11;100122.94;;;21.91;33.86
47883;BME280;37739;50.350;7.578;2023-04-30T12:51:38;100120.78;;;22.71;33.20
47883;BME280;37739;50.350;7.578;2023-04-30T12:54:08;100120.13;;;22.35;33.04
47883;BME280;37739;50.350;7.578;2023-04-30T12:56:34;100116.97;;;21.58;33.08
47883;BME280;37739;50.350;7.578;2023-04-30T12:59:02;100109.13;;;21.67;33.92
47883;BME280;37739;50.350;7.578;2023-04-30T13:01:27;100113.25;;;22.18;33.66
47883;BME280;37739;50.350;7.578;2023-04-30T13:03:52;100105.88;;;22.83;32.40
47883;BME280;37739;50.350;7.578;2023-04-30T13:06:20;100096.78;;;23.22;30.22
47883;BME280;37739;50.350;7.578;2023-04-30T13:08:45;100097.72;;;23.15;31.05
47883;BME280;37739;50.350;7.578;2023-04-30T13:11:10;100094.69;;;23.57;30.89
47883;BME280;37739;50.350;7.578;2023-04-30T13:13:36;100091.63;;;23.16;29.85
47883;BME280;37739;50.350;7.578;2023-04-30T13:16:01;100096.97;;;23.01;30.71
47883;BME280;37739;50.350;7.578;2023-04-30T13:18:31;100085.88;;;23.64;30.27
47883;BME280;37739;50.350;7.578;2023-04-30T13:20:57;100080.06;;;23.37;29.37